sensor_id;sensor_type;location;lat;lon;timestamp;temperature;humidity
20233;DHT22;37438;55.674;13.074;2023-05-10T00:02:52;10.80;99.90
20233;DHT22;37438;55.674;13.074;2023-05-10T00:05:56;10.80;99.90
20233;DHT22;37438;55.674;13.074;2023-05-10T00:09:00;10.80;99.90
20233;DHT22;37438;55.674;13.074;2023-05-10T00:12:05;10.80;99.90
20233;DHT22;37438;55.674;13.074;2023-05-10T00:15:10;10.70;99.90
20233;DHT22;37438;55.674;13.074;2023-05-10T00:18:14;10.70;99.90
20233;DHT22;37438;55.674;13.074;2023-05-10T00:21:19;10.60;99.90
20233;DHT22;37438;55.674;13.074;2023-05-10T00:24:24;10.70;99.90
20233;DHT22;37438;55.674;13.074;2023-05-10T00:27:28;10.80;99.90
20233;DHT22;37438;55.674;13.074;2023-05-10T00:30:33;10.80;99.90
20233;DHT22;37438;55.674;13.074;2023-05-10T00:33:38;10.80;99.90
20233;DHT22;37438;55.674;13.074;2023-05-10T00:36:43;10.80;99.90
20233;DHT22;37438;55.674;13.074;2023-05-10T00:39:47;10.80;99.90
20233;DHT22;37438;55.674;13.074;2023-05-10T00:42:52;10.60;99.90
20233;DHT22;37438;55.674;13.074;2023-05-10T00:45:56;10.60;99.90
20233;DHT22;37438;55.674;13.074;2023-05-10T00:49:01;10.80;99.90
20233;DHT22;37438;55.674;13.074;2023-05-10T00:52:06;10.80;99.90
20233;DHT22;37438;55.674;13.074;2023-05-10T00:55:11;10.80;99.90
20233;DHT22;37438;55.674;13.074;2023-05-10T00:58:16;10.80;99.90
20233;DHT22;37438;55.674;13.074;2023-05-10T01:01:21;10.80;99.90
20233;DHT22;37438;55.674;13.074;2023-05-10T01:04:26;10.80;99.90
20233;DHT22;37438;55.674;13.074;2023-05-10T01:07:31;10.70;99.90
20233;DHT22;37438;55.674;13.074;2023-05-10T01:10:35;10.70;99.90
20233;DHT22;37438;55.674;13.074;2023-05-10T01:13:42;10.70;99.90
20233;DHT22;37438;55.674;13.074;2023-05-10T01:16:49;10.60;99.90
20233;DHT22;37438;55.674;13.074;2023-05-10T01:19:53;10.70;99.90
20233;DHT22;37438;55.674;13.074;2023-05-10T01:23:11;10.70;99.90
20233;DHT22;37438;55.674;13.074;2023-05-10T01:37:06;10.50;99.90
20233;DHT22;37438;55.674;13.074;2023-05-10T01:40:32;10.50;99.90
20233;DHT22;37438;55.674;13.074;2023-05-10T01:44:09;10.50;99.90
20233;DHT22;37438;55.674;13.074;2023-05-10T01:48:17;10.50;99.90
20233;DHT22;37438;55.674;13.074;2023-05-10T01:50:51;10.50;99.90
20233;DHT22;37438;55.674;13.074;2023-05-10T01:54:00;10.40;99.90
20233;DHT22;37438;55.674;13.074;2023-05-10T01:57:06;10.40;99.90
20233;DHT22;37438;55.674;13.074;2023-05-10T02:00:14;10.40;99.90
20233;DHT22;37438;55.674;13.074;2023-05-10T02:03:24;10.30;99.90
20233;DHT22;37438;55.674;13.074;2023-05-10T02:06:29;10.40;99.90
20233;DHT22;37438;55.674;13.074;2023-05-10T02:09:36;10.40;99.90
20233;DHT22;37438;55.674;13.074;2023-05-10T02:12:43;10.30;99.90
20233;DHT22;37438;55.674;13.074;2023-05-10T02:15:49;10.30;99.90
20233;DHT22;37438;55.674;13.074;2023-05-10T02:18:56;10.30;99.90
20233;DHT22;37438;55.674;13.074;2023-05-10T02:22:03;10.20;99.90
20233;DHT22;37438;55.674;13.074;2023-05-10T02:25:10;10.20;1.00
20233;DHT22;37438;55.674;13.074;2023-05-10T02:28:16;10.20;1.00
20233;DHT22;37438;55.674;13.074;2023-05-10T02:31:21;10.10;1.00
20233;DHT22;37438;55.674;13.074;2023-05-10T02:34:27;10.10;1.00
20233;DHT22;37438;55.674;13.074;2023-05-10T02:37:33;10.20;1.00
20233;DHT22;37438;55.674;13.074;2023-05-10T02:40:41;10.10;1.00
20233;DHT22;37438;55.674;13.074;2023-05-10T02:43:47;10.00;1.00
20233;DHT22;37438;55.674;13.074;2023-05-10T02:46:54;10.00;1.00
20233;DHT22;37438;55.674;13.074;2023-05-10T02:50:00;10.00;1.00
20233;DHT22;37438;55.674;13.074;2023-05-10T02:53:10;10.10;99.90
20233;DHT22;37438;55.674;13.074;2023-05-10T02:56:25;10.00;1.00
20233;DHT22;37438;55.674;13.074;2023-05-10T02:59:32;10.10;1.00
20233;DHT22;37438;55.674;13.074;2023-05-10T03:02:37;10.10;99.90
20233;DHT22;37438;55.674;13.074;2023-05-10T03:05:42;10.10;99.90
20233;DHT22;37438;55.674;13.074;2023-05-10T03:08:47;10.00;99.90
20233;DHT22;37438;55.674;13.074;2023-05-10T03:15:26;10.10;1.00
20233;DHT22;37438;55.674;13.074;2023-05-10T03:18:41;10.10;99.90
20233;DHT22;37438;55.674;13.074;2023-05-10T03:21:51;10.10;99.90
20233;DHT22;37438;55.674;13.074;2023-05-10T03:24:57;10.10;99.90
20233;DHT22;37438;55.674;13.074;2023-05-10T03:28:05;10.20;99.90
20233;DHT22;37438;55.674;13.074;2023-05-10T03:31:11;10.20;99.90
20233;DHT22;37438;55.674;13.074;2023-05-10T03:34:16;10.10;99.90
20233;DHT22;37438;55.674;13.074;2023-05-10T03:37:21;10.20;99.90
20233;DHT22;37438;55.674;13.074;2023-05-10T03:40:26;10.30;99.90
20233;DHT22;37438;55.674;13.074;2023-05-10T03:43:33;10.30;99.90
20233;DHT22;37438;55.674;13.074;2023-05-10T03:46:38;10.40;99.90
20233;DHT22;37438;55.674;13.074;2023-05-10T03:49:43;10.50;99.90
20233;DHT22;37438;55.674;13.074;2023-05-10T03:52:49;10.60;99.90
20233;DHT22;37438;55.674;13.074;2023-05-10T03:55:55;10.60;99.90
20233;DHT22;37438;55.674;13.074;2023-05-10T03:58:59;10.60;99.90
20233;DHT22;37438;55.674;13.074;2023-05-10T04:02:05;10.80;99.90
20233;DHT22;37438;55.674;13.074;2023-05-10T04:05:09;10.80;99.90
20233;DHT22;37438;55.674;13.074;2023-05-10T04:08:14;10.90;99.90
20233;DHT22;37438;55.674;13.074;2023-05-10T04:11:20;10.90;99.90
20233;DHT22;37438;55.674;13.074;2023-05-10T04:14:26;11.00;99.90
20233;DHT22;37438;55.674;13.074;2023-05-10T04:17:30;11.00;99.90
20233;DHT22;37438;55.674;13.074;2023-05-10T04:20:35;11.20;99.90
20233;DHT22;37438;55.674;13.074;2023-05-10T04:23:40;11.20;99.90
20233;DHT22;37438;55.674;13.074;2023-05-10T04:26:44;11.20;99.90
20233;DHT22;37438;55.674;13.074;2023-05-10T04:29:49;11.30;99.90
20233;DHT22;37438;55.674;13.074;2023-05-10T04:32:54;11.30;99.90
20233;DHT22;37438;55.674;13.074;2023-05-10T04:35:59;11.40;99.90
20233;DHT22;37438;55.674;13.074;2023-05-10T04:39:04;11.60;99.90
20233;DHT22;37438;55.674;13.074;2023-05-10T04:42:09;11.50;99.90
20233;DHT22;37438;55.674;13.074;2023-05-10T04:45:13;11.70;99.90
20233;DHT22;37438;55.674;13.074;2023-05-10T04:48:20;11.80;99.90
20233;DHT22;37438;55.674;13.074;2023-05-10T04:51:25;11.80;99.90
20233;DHT22;37438;55.674;13.074;2023-05-10T04:54:29;12.00;99.90
20233;DHT22;37438;55.674;13.074;2023-05-10T04:57:33;11.90;99.90
20233;DHT22;37438;55.674;13.074;2023-05-10T05:00:38;11.90;99.90
20233;DHT22;37438;55.674;13.074;2023-05-10T05:03:42;12.00;99.90
20233;DHT22;37438;55.674;13.074;2023-05-10T05:06:47;12.20;99.90
20233;DHT22;37438;55.674;13.074;2023-05-10T05:09:53;12.40;99.90
20233;DHT22;37438;55.674;13.074;2023-05-10T05:12:57;12.50;99.90
20233;DHT22;37438;55.674;13.074;2023-05-10T05:16:02;12.40;99.90
20233;DHT22;37438;55.674;13.074;2023-05-10T05:19:07;12.70;99.90
20233;DHT22;37438;55.674;13.074;2023-05-10T05:22:11;12.60;99.90
20233;DHT22;37438;55.674;13.074;2023-05-10T05:25:17;12.50;99.90
20233;DHT22;37438;55.674;13.074;2023-05-10T05:28:22;13.10;99.90
20233;DHT22;37438;55.674;13.074;2023-05-10T05:31:26;13.20;99.90
20233;DHT22;37438;55.674;13.074;2023-05-10T05:34:31;12.90;99.90
20233;DHT22;37438;55.674;13.074;2023-05-10T05:37:35;13.00;99.90
20233;DHT22;37438;55.674;13.074;2023-05-10T05:40:40;13.00;99.90
20233;DHT22;37438;55.674;13.074;2023-05-10T05:43:44;13.20;99.90
20233;DHT22;37438;55.674;13.074;2023-05-10T05:46:48;13.10;99.90
20233;DHT22;37438;55.674;13.074;2023-05-10T05:49:53;13.40;99.90
20233;DHT22;37438;55.674;13.074;2023-05-10T05:52:57;13.30;99.90
20233;DHT22;37438;55.674;13.074;2023-05-10T05:56:02;13.50;99.90
20233;DHT22;37438;55.674;13.074;2023-05-10T05:59:07;13.90;99.90
20233;DHT22;37438;55.674;13.074;2023-05-10T06:02:12;13.70;99.90
20233;DHT22;37438;55.674;13.074;2023-05-10T06:05:17;13.90;99.90
20233;DHT22;37438;55.674;13.074;2023-05-10T06:08:21;13.30;99.90
20233;DHT22;37438;55.674;13.074;2023-05-10T06:11:26;13.80;99.90
20233;DHT22;37438;55.674;13.074;2023-05-10T06:14:30;13.80;99.90
20233;DHT22;37438;55.674;13.074;2023-05-10T06:17:34;13.90;99.90
20233;DHT22;37438;55.674;13.074;2023-05-10T06:20:41;14.20;99.90
20233;DHT22;37438;55.674;13.074;2023-05-10T06:23:45;14.00;99.90
20233;DHT22;37438;55.674;13.074;2023-05-10T06:26:49;14.20;99.90
20233;DHT22;37438;55.674;13.074;2023-05-10T06:29:54;14.30;99.90
20233;DHT22;37438;55.674;13.074;2023-05-10T06:33:12;14.10;99.90
20233;DHT22;37438;55.674;13.074;2023-05-10T06:36:16;14.50;99.90
20233;DHT22;37438;55.674;13.074;2023-05-10T06:39:21;15.10;99.90
20233;DHT22;37438;55.674;13.074;2023-05-10T06:42:25;15.00;99.90
20233;DHT22;37438;55.674;13.074;2023-05-10T06:45:31;14.60;99.90
20233;DHT22;37438;55.674;13.074;2023-05-10T06:48:35;14.60;99.90
20233;DHT22;37438;55.674;13.074;2023-05-10T06:51:40;15.40;99.90
20233;DHT22;37438;55.674;13.074;2023-05-10T06:54:45;15.30;99.90
20233;DHT22;37438;55.674;13.074;2023-05-10T06:57:49;14.50;99.90
20233;DHT22;37438;55.674;13.074;2023-05-10T07:01:02;15.00;99.90
20233;DHT22;37438;55.674;13.074;2023-05-10T07:04:07;15.00;99.90
20233;DHT22;37438;55.674;13.074;2023-05-10T07:07:11;15.40;99.90
20233;DHT22;37438;55.674;13.074;2023-05-10T07:10:16;15.20;99.90
20233;DHT22;37438;55.674;13.074;2023-05-10T07:13:22;15.20;99.90
20233;DHT22;37438;55.674;13.074;2023-05-10T07:16:26;15.60;99.90
20233;DHT22;37438;55.674;13.074;2023-05-10T07:19:30;15.60;99.90
20233;DHT22;37438;55.674;13.074;2023-05-10T07:22:36;15.50;99.90
20233;DHT22;37438;55.674;13.074;2023-05-10T07:25:41;15.90;99.90
20233;DHT22;37438;55.674;13.074;2023-05-10T07:28:45;15.30;99.90
20233;DHT22;37438;55.674;13.074;2023-05-10T07:31:49;15.20;99.90
20233;DHT22;37438;55.674;13.074;2023-05-10T07:34:54;15.80;99.90
20233;DHT22;37438;55.674;13.074;2023-05-10T07:37:58;15.60;99.90
20233;DHT22;37438;55.674;13.074;2023-05-10T07:41:02;16.30;99.90
20233;DHT22;37438;55.674;13.074;2023-05-10T07:44:07;15.90;99.90
20233;DHT22;37438;55.674;13.074;2023-05-10T07:47:11;16.10;99.90
20233;DHT22;37438;55.674;13.074;2023-05-10T07:50:15;16.30;99.90
20233;DHT22;37438;55.674;13.074;2023-05-10T07:53:20;16.40;99.90
20233;DHT22;37438;55.674;13.074;2023-05-10T07:56:29;16.50;99.90
20233;DHT22;37438;55.674;13.074;2023-05-10T07:59:34;15.90;99.90
20233;DHT22;37438;55.674;13.074;2023-05-10T08:02:38;15.80;99.90
20233;DHT22;37438;55.674;13.074;2023-05-10T08:05:42;15.60;99.90
20233;DHT22;37438;55.674;13.074;2023-05-10T08:08:48;16.20;99.90
20233;DHT22;37438;55.674;13.074;2023-05-10T08:11:55;16.40;99.90
20233;DHT22;37438;55.674;13.074;2023-05-10T08:14:59;16.20;99.90
20233;DHT22;37438;55.674;13.074;2023-05-10T08:18:04;16.40;99.90
20233;DHT22;37438;55.674;13.074;2023-05-10T08:21:08;16.30;99.90
20233;DHT22;37438;55.674;13.074;2023-05-10T08:24:15;16.80;99.90
20233;DHT22;37438;55.674;13.074;2023-05-10T08:27:20;16.30;99.90
20233;DHT22;37438;55.674;13.074;2023-05-10T08:30:25;16.60;99.90
20233;DHT22;37438;55.674;13.074;2023-05-10T08:33:29;17.30;99.90
20233;DHT22;37438;55.674;13.074;2023-05-10T08:36:33;17.60;99.90
20233;DHT22;37438;55.674;13.074;2023-05-10T08:39:38;16.70;99.90
20233;DHT22;37438;55.674;13.074;2023-05-10T08:42:51;17.70;99.90
20233;DHT22;37438;55.674;13.074;2023-05-10T08:46:05;17.60;99.90
20233;DHT22;37438;55.674;13.074;2023-05-10T08:49:11;17.10;99.90
20233;DHT22;37438;55.674;13.074;2023-05-10T08:52:17;17.20;99.90
20233;DHT22;37438;55.674;13.074;2023-05-10T08:55:23;17.60;99.90
20233;DHT22;37438;55.674;13.074;2023-05-10T08:58:28;17.30;99.90
20233;DHT22;37438;55.674;13.074;2023-05-10T09:01:35;17.80;99.90
20233;DHT22;37438;55.674;13.074;2023-05-10T09:04:40;17.40;99.90
20233;DHT22;37438;55.674;13.074;2023-05-10T09:07:46;17.40;99.90
20233;DHT22;37438;55.674;13.074;2023-05-10T09:10:51;17.40;99.90
20233;DHT22;37438;55.674;13.074;2023-05-10T09:13:55;17.80;99.90
20233;DHT22;37438;55.674;13.074;2023-05-10T09:17:00;18.10;99.90
20233;DHT22;37438;55.674;13.074;2023-05-10T09:20:05;18.10;99.90
20233;DHT22;37438;55.674;13.074;2023-05-10T09:23:10;17.60;99.90
20233;DHT22;37438;55.674;13.074;2023-05-10T09:26:15;17.90;99.90
20233;DHT22;37438;55.674;13.074;2023-05-10T09:29:20;18.10;99.90
20233;DHT22;37438;55.674;13.074;2023-05-10T09:32:37;18.10;99.90
20233;DHT22;37438;55.674;13.074;2023-05-10T09:35:42;18.80;99.90
20233;DHT22;37438;55.674;13.074;2023-05-10T09:38:51;18.70;99.90
20233;DHT22;37438;55.674;13.074;2023-05-10T09:41:58;18.80;99.90
20233;DHT22;37438;55.674;13.074;2023-05-10T09:45:05;18.50;99.90
20233;DHT22;37438;55.674;13.074;2023-05-10T09:48:09;18.30;99.90
20233;DHT22;37438;55.674;13.074;2023-05-10T09:54:24;18.60;99.90
20233;DHT22;37438;55.674;13.074;2023-05-10T09:57:29;18.60;99.90
20233;DHT22;37438;55.674;13.074;2023-05-10T10:00:46;19.20;99.90
20233;DHT22;37438;55.674;13.074;2023-05-10T10:03:56;18.30;99.90
20233;DHT22;37438;55.674;13.074;2023-05-10T10:07:03;18.70;99.90
20233;DHT22;37438;55.674;13.074;2023-05-10T10:10:08;18.90;99.90
20233;DHT22;37438;55.674;13.074;2023-05-10T10:13:16;18.80;99.90
20233;DHT22;37438;55.674;13.074;2023-05-10T10:16:21;18.40;99.90
20233;DHT22;37438;55.674;13.074;2023-05-10T10:19:26;18.50;99.90
20233;DHT22;37438;55.674;13.074;2023-05-10T10:22:30;18.90;99.90
20233;DHT22;37438;55.674;13.074;2023-05-10T10:25:35;19.00;99.90
20233;DHT22;37438;55.674;13.074;2023-05-10T10:32:10;18.30;99.90
20233;DHT22;37438;55.674;13.074;2023-05-10T10:35:16;18.30;99.90
20233;DHT22;37438;55.674;13.074;2023-05-10T10:38:21;19.10;99.90
20233;DHT22;37438;55.674;13.074;2023-05-10T10:41:33;18.80;99.90
20233;DHT22;37438;55.674;13.074;2023-05-10T10:44:38;18.60;99.90
20233;DHT22;37438;55.674;13.074;2023-05-10T10:47:43;19.20;99.90
20233;DHT22;37438;55.674;13.074;2023-05-10T10:50:56;18.80;99.90
20233;DHT22;37438;55.674;13.074;2023-05-10T10:54:09;19.20;99.90
20233;DHT22;37438;55.674;13.074;2023-05-10T10:57:14;20.20;99.90
20233;DHT22;37438;55.674;13.074;2023-05-10T11:00:30;19.70;99.90
20233;DHT22;37438;55.674;13.074;2023-05-10T11:03:38;19.40;99.90
20233;DHT22;37438;55.674;13.074;2023-05-10T11:06:42;19.50;99.90
20233;DHT22;37438;55.674;13.074;2023-05-10T11:09:47;19.20;99.90
20233;DHT22;37438;55.674;13.074;2023-05-10T11:15:58;19.40;99.90
20233;DHT22;37438;55.674;13.074;2023-05-10T11:19:16;19.20;99.90
20233;DHT22;37438;55.674;13.074;2023-05-10T11:22:21;19.60;99.90
20233;DHT22;37438;55.674;13.074;2023-05-10T11:25:29;20.00;99.90
20233;DHT22;37438;55.674;13.074;2023-05-10T11:28:33;19.60;99.90
20233;DHT22;37438;55.674;13.074;2023-05-10T11:31:43;19.60;99.90
20233;DHT22;37438;55.674;13.074;2023-05-10T11:34:48;19.00;99.90
20233;DHT22;37438;55.674;13.074;2023-05-10T11:37:53;19.80;99.90
20233;DHT22;37438;55.674;13.074;2023-05-10T11:40:57;19.60;99.90
20233;DHT22;37438;55.674;13.074;2023-05-10T11:44:02;19.50;99.90
20233;DHT22;37438;55.674;13.074;2023-05-10T11:47:07;19.80;99.90
20233;DHT22;37438;55.674;13.074;2023-05-10T11:50:11;19.80;99.90
20233;DHT22;37438;55.674;13.074;2023-05-10T11:53:16;19.50;99.90
20233;DHT22;37438;55.674;13.074;2023-05-10T11:56:21;19.70;99.90
20233;DHT22;37438;55.674;13.074;2023-05-10T11:59:25;19.40;99.90
20233;DHT22;37438;55.674;13.074;2023-05-10T12:02:30;19.60;99.90
20233;DHT22;37438;55.674;13.074;2023-05-10T12:05:35;19.70;99.90
20233;DHT22;37438;55.674;13.074;2023-05-10T12:08:44;19.80;99.90
20233;DHT22;37438;55.674;13.074;2023-05-10T12:11:55;19.90;99.90
20233;DHT22;37438;55.674;13.074;2023-05-10T12:15:00;19.70;99.90
20233;DHT22;37438;55.674;13.074;2023-05-10T12:18:09;19.90;99.90
20233;DHT22;37438;55.674;13.074;2023-05-10T12:21:15;19.80;99.90
20233;DHT22;37438;55.674;13.074;2023-05-10T12:24:19;19.90;99.90
20233;DHT22;37438;55.674;13.074;2023-05-10T12:27:31;20.20;99.90
20233;DHT22;37438;55.674;13.074;2023-05-10T12:30:53;20.30;99.90
20233;DHT22;37438;55.674;13.074;2023-05-10T12:33:58;20.40;99.90
20233;DHT22;37438;55.674;13.074;2023-05-10T12:37:03;20.80;99.90
20233;DHT22;37438;55.674;13.074;2023-05-10T12:40:08;21.00;99.90
20233;DHT22;37438;55.674;13.074;2023-05-10T12:43:14;20.10;99.90
20233;DHT22;37438;55.674;13.074;2023-05-10T12:46:18;20.30;99.90
20233;DHT22;37438;55.674;13.074;2023-05-10T12:49:23;20.60;99.90
20233;DHT22;37438;55.674;13.074;2023-05-10T12:52:28;20.60;99.90
20233;DHT22;37438;55.674;13.074;2023-05-10T12:55:33;20.50;99.90
20233;DHT22;37438;55.674;13.074;2023-05-10T12:58:38;21.30;99.90
20233;DHT22;37438;55.674;13.074;2023-05-10T13:01:43;21.00;99.90
20233;DHT22;37438;55.674;13.074;2023-05-10T13:04:47;21.00;99.90
20233;DHT22;37438;55.674;13.074;2023-05-10T13:07:54;20.60;99.90
20233;DHT22;37438;55.674;13.074;2023-05-10T13:10:59;20.10;99.90
20233;DHT22;37438;55.674;13.074;2023-05-10T13:14:03;20.60;99.90
20233;DHT22;37438;55.674;13.074;2023-05-10T13:17:08;20.80;99.90
20233;DHT22;37438;55.674;13.074;2023-05-10T13:20:12;20.80;99.90
20233;DHT22;37438;55.674;13.074;2023-05-10T13:23:16;20.80;99.90
20233;DHT22;37438;55.674;13.074;2023-05-10T13:26:20;21.00;99.90
20233;DHT22;37438;55.674;13.074;2023-05-10T13:29:25;20.60;99.90
20233;DHT22;37438;55.674;13.074;2023-05-10T13:32:30;21.30;99.90
20233;DHT22;37438;55.674;13.074;2023-05-10T13:35:34;20.60;99.90
20233;DHT22;37438;55.674;13.074;2023-05-10T13:38:38;21.30;99.90
20233;DHT22;37438;55.674;13.074;2023-05-10T13:41:43;21.10;99.90
20233;DHT22;37438;55.674;13.074;2023-05-10T13:44:47;20.80;99.90
20233;DHT22;37438;55.674;13.074;2023-05-10T13:47:52;20.90;99.90
20233;DHT22;37438;55.674;13.074;2023-05-10T13:50:56;21.10;99.90
20233;DHT22;37438;55.674;13.074;2023-05-10T13:54:03;20.90;99.90
20233;DHT22;37438;55.674;13.074;2023-05-10T13:57:08;21.00;99.90
20233;DHT22;37438;55.674;13.074;2023-05-10T14:00:13;20.90;99.90
20233;DHT22;37438;55.674;13.074;2023-05-10T14:03:18;21.50;99.90
20233;DHT22;37438;55.674;13.074;2023-05-10T14:06:22;21.10;99.90
20233;DHT22;37438;55.674;13.074;2023-05-10T14:09:27;21.40;99.90
20233;DHT22;37438;55.674;13.074;2023-05-10T14:12:31;20.90;99.90
20233;DHT22;37438;55.674;13.074;2023-05-10T14:15:35;21.00;99.90
20233;DHT22;37438;55.674;13.074;2023-05-10T14:18:40;21.10;99.90
20233;DHT22;37438;55.674;13.074;2023-05-10T14:21:44;21.10;99.90
20233;DHT22;37438;55.674;13.074;2023-05-10T14:24:49;21.00;99.90
20233;DHT22;37438;55.674;13.074;2023-05-10T14:27:54;20.80;99.90
20233;DHT22;37438;55.674;13.074;2023-05-10T14:30:58;20.60;99.90
20233;DHT22;37438;55.674;13.074;2023-05-10T14:34:03;20.50;99.90
20233;DHT22;37438;55.674;13.074;2023-05-10T14:37:10;20.80;99.90
20233;DHT22;37438;55.674;13.074;2023-05-10T14:40:16;21.10;99.90
20233;DHT22;37438;55.674;13.074;2023-05-10T14:43:21;21.60;99.90
20233;DHT22;37438;55.674;13.074;2023-05-10T14:46:27;20.90;99.90
20233;DHT22;37438;55.674;13.074;2023-05-10T14:49:31;20.80;99.90
20233;DHT22;37438;55.674;13.074;2023-05-10T14:52:36;21.10;99.90
20233;DHT22;37438;55.674;13.074;2023-05-10T14:55:40;21.20;99.90
20233;DHT22;37438;55.674;13.074;2023-05-10T14:58:45;21.10;99.90
20233;DHT22;37438;55.674;13.074;2023-05-10T15:01:49;21.00;99.90
20233;DHT22;37438;55.674;13.074;2023-05-10T15:04:54;21.30;99.90
20233;DHT22;37438;55.674;13.074;2023-05-10T15:07:59;21.10;99.90
20233;DHT22;37438;55.674;13.074;2023-05-10T15:11:04;21.50;99.90
20233;DHT22;37438;55.674;13.074;2023-05-10T15:14:08;21.40;99.90
20233;DHT22;37438;55.674;13.074;2023-05-10T15:17:13;21.10;99.90
20233;DHT22;37438;55.674;13.074;2023-05-10T15:20:18;20.80;99.90
20233;DHT22;37438;55.674;13.074;2023-05-10T15:23:22;21.10;99.90
20233;DHT22;37438;55.674;13.074;2023-05-10T15:26:27;21.90;99.90
20233;DHT22;37438;55.674;13.074;2023-05-10T15:29:31;22.90;99.90
20233;DHT22;37438;55.674;13.074;2023-05-10T15:32:36;22.40;99.90
20233;DHT22;37438;55.674;13.074;2023-05-10T15:35:41;21.60;99.90
20233;DHT22;37438;55.674;13.074;2023-05-10T15:38:46;22.40;99.90
20233;DHT22;37438;55.674;13.074;2023-05-10T15:41:51;22.10;99.90
20233;DHT22;37438;55.674;13.074;2023-05-10T15:44:55;22.00;99.90
20233;DHT22;37438;55.674;13.074;2023-05-10T15:47:59;22.20;99.90
20233;DHT22;37438;55.674;13.074;2023-05-10T15:51:04;22.60;99.90
20233;DHT22;37438;55.674;13.074;2023-05-10T15:54:09;22.60;99.90
20233;DHT22;37438;55.674;13.074;2023-05-10T15:57:13;23.00;99.90
20233;DHT22;37438;55.674;13.074;2023-05-10T16:00:17;22.30;99.90
20233;DHT22;37438;55.674;13.074;2023-05-10T16:03:22;22.40;99.90
20233;DHT22;37438;55.674;13.074;2023-05-10T16:06:26;22.20;99.90
20233;DHT22;37438;55.674;13.074;2023-05-10T16:09:31;21.50;99.90
20233;DHT22;37438;55.674;13.074;2023-05-10T16:12:35;21.70;99.90
20233;DHT22;37438;55.674;13.074;2023-05-10T16:15:39;22.10;99.90
20233;DHT22;37438;55.674;13.074;2023-05-10T16:18:45;21.70;99.90
20233;DHT22;37438;55.674;13.074;2023-05-10T16:21:49;22.20;99.90
20233;DHT22;37438;55.674;13.074;2023-05-10T16:24:56;21.60;99.90
20233;DHT22;37438;55.674;13.074;2023-05-10T16:28:01;21.40;99.90
20233;DHT22;37438;55.674;13.074;2023-05-10T16:31:05;21.40;99.90
20233;DHT22;37438;55.674;13.074;2023-05-10T16:34:10;21.70;99.90
20233;DHT22;37438;55.674;13.074;2023-05-10T16:37:14;22.00;99.90
20233;DHT22;37438;55.674;13.074;2023-05-10T16:40:18;21.90;99.90
20233;DHT22;37438;55.674;13.074;2023-05-10T16:43:23;21.80;99.90
20233;DHT22;37438;55.674;13.074;2023-05-10T16:46:29;21.10;99.90
20233;DHT22;37438;55.674;13.074;2023-05-10T16:49:35;21.20;99.90
20233;DHT22;37438;55.674;13.074;2023-05-10T16:52:39;21.00;99.90
20233;DHT22;37438;55.674;13.074;2023-05-10T16:55:44;19.30;99.90
20233;DHT22;37438;55.674;13.074;2023-05-10T16:58:49;18.80;99.90
20233;DHT22;37438;55.674;13.074;2023-05-10T17:01:54;18.60;99.90
20233;DHT22;37438;55.674;13.074;2023-05-10T17:04:59;18.40;99.90
20233;DHT22;37438;55.674;13.074;2023-05-10T17:08:04;18.30;99.90
20233;DHT22;37438;55.674;13.074;2023-05-10T17:11:08;18.30;99.90
20233;DHT22;37438;55.674;13.074;2023-05-10T17:14:12;18.20;99.90
20233;DHT22;37438;55.674;13.074;2023-05-10T17:17:17;18.20;99.90
20233;DHT22;37438;55.674;13.074;2023-05-10T17:20:22;18.20;99.90
20233;DHT22;37438;55.674;13.074;2023-05-10T17:23:27;18.00;99.90
20233;DHT22;37438;55.674;13.074;2023-05-10T17:26:31;18.00;99.90
20233;DHT22;37438;55.674;13.074;2023-05-10T17:29:35;17.90;99.90
20233;DHT22;37438;55.674;13.074;2023-05-10T17:32:40;17.90;99.90
20233;DHT22;37438;55.674;13.074;2023-05-10T17:35:44;17.80;99.90
20233;DHT22;37438;55.674;13.074;2023-05-10T17:38:50;17.70;99.90
20233;DHT22;37438;55.674;13.074;2023-05-10T17:41:54;17.70;99.90
20233;DHT22;37438;55.674;13.074;2023-05-10T17:44:59;17.60;99.90
20233;DHT22;37438;55.674;13.074;2023-05-10T17:48:03;17.60;99.90
20233;DHT22;37438;55.674;13.074;2023-05-10T17:51:08;17.50;99.90
20233;DHT22;37438;55.674;13.074;2023-05-10T17:54:15;17.30;99.90
20233;DHT22;37438;55.674;13.074;2023-05-10T17:57:19;17.20;99.90
20233;DHT22;37438;55.674;13.074;2023-05-10T18:00:24;17.00;99.90
20233;DHT22;37438;55.674;13.074;2023-05-10T18:03:28;16.90;99.90
20233;DHT22;37438;55.674;13.074;2023-05-10T18:06:36;16.80;99.90
20233;DHT22;37438;55.674;13.074;2023-05-10T18:09:40;16.70;99.90
20233;DHT22;37438;55.674;13.074;2023-05-10T18:12:45;16.60;99.90
20233;DHT22;37438;55.674;13.074;2023-05-10T18:15:50;16.50;99.90
20233;DHT22;37438;55.674;13.074;2023-05-10T18:18:56;16.40;99.90
20233;DHT22;37438;55.674;13.074;2023-05-10T18:22:01;16.40;99.90
20233;DHT22;37438;55.674;13.074;2023-05-10T18:25:06;16.20;99.90
20233;DHT22;37438;55.674;13.074;2023-05-10T18:28:10;16.00;99.90
20233;DHT22;37438;55.674;13.074;2023-05-10T18:31:15;15.90;99.90
20233;DHT22;37438;55.674;13.074;2023-05-10T18:34:19;15.80;99.90
20233;DHT22;37438;55.674;13.074;2023-05-10T18:37:24;15.70;99.90
20233;DHT22;37438;55.674;13.074;2023-05-10T18:40:28;15.50;99.90
20233;DHT22;37438;55.674;13.074;2023-05-10T18:43:33;15.50;99.90
20233;DHT22;37438;55.674;13.074;2023-05-10T18:46:38;15.40;99.90
20233;DHT22;37438;55.674;13.074;2023-05-10T18:49:42;15.30;99.90
20233;DHT22;37438;55.674;13.074;2023-05-10T18:52:49;15.20;99.90
20233;DHT22;37438;55.674;13.074;2023-05-10T18:55:57;15.00;99.90
20233;DHT22;37438;55.674;13.074;2023-05-10T18:59:02;14.90;99.90
20233;DHT22;37438;55.674;13.074;2023-05-10T19:02:07;14.80;99.90
20233;DHT22;37438;55.674;13.074;2023-05-10T19:05:12;14.60;99.90
20233;DHT22;37438;55.674;13.074;2023-05-10T19:08:17;14.50;99.90
20233;DHT22;37438;55.674;13.074;2023-05-10T19:11:22;14.40;99.90
20233;DHT22;37438;55.674;13.074;2023-05-10T19:14:27;14.30;99.90
20233;DHT22;37438;55.674;13.074;2023-05-10T19:17:31;14.10;99.90
20233;DHT22;37438;55.674;13.074;2023-05-10T19:20:36;14.00;1.00
20233;DHT22;37438;55.674;13.074;2023-05-10T19:23:43;13.90;1.00
20233;DHT22;37438;55.674;13.074;2023-05-10T19:26:48;13.80;1.00
20233;DHT22;37438;55.674;13.074;2023-05-10T19:29:53;13.70;1.00
20233;DHT22;37438;55.674;13.074;2023-05-10T19:32:59;13.60;1.00
20233;DHT22;37438;55.674;13.074;2023-05-10T19:36:08;13.50;1.00
20233;DHT22;37438;55.674;13.074;2023-05-10T19:39:12;13.40;1.00
20233;DHT22;37438;55.674;13.074;2023-05-10T19:42:17;13.30;1.00